Worthington, OH (43085)

8:48 AM EDT on May 05, 2015 (GMT -0400)
WX8Q Worthington Estates East | | Change Station
CLOSE
Current Station
Personal Weather Station
Location: Worthington, OH
Elevation: 922 ft
Nearby Weather Stations

Elev 922 ft 40.10 °N, 83.01 °W | Updated 30 seconds ago

Overcast
Overcast
63.5 °F
Feels Like 63.5 °F
N
1.0
Wind Variable Wind from West
Gusts 1.8 mph

Today
High -- | Low -- °F
--% Chance of Precip.
Yesterday
High -- | Low -- °F
Precip. -- in
6:27 AM 8:30 PM
Full, 98% visible
Pressure 30.25 in
Visibility 3.0 miles
Clouds Scattered Clouds 7000 ft
Overcast 9500 ft
Dew Point 63 °F
Humidity 97%
Rainfall 0.04 in
Snow Depth Not available.
UV 0.0 out of 12
Pollen 9.80 out of 12
Air Quality Not available.
Flu Activity Regional
METAR KOSU 051053Z AUTO 25003KT 3SM -RA BR SCT070 OVC095 16/15 A3026 RMK AO2 RAB01 SLP243 P0005 T01610150

More Conditions Fewer Conditions

Pressure 30.25 in
Visibility 3.0 miles
Clouds Scattered Clouds 7000 ft
Overcast 9500 ft
Dew Point 63 °F
Humidity 97%
Rainfall 0.04 in
Snow Depth Not available.
UV 0.0 out of 12
Pollen 9.80 out of 12
Air Quality Not available.
Flu Activity Regional
METAR KOSU 051053Z AUTO 25003KT 3SM -RA BR SCT070 OVC095 16/15 A3026 RMK AO2 RAB01 SLP243 P0005 T01610150

More Conditions Fewer Conditions

Nepal has a long way to go to dig out and rebuild from a devastating earthquake. We have teamed up with several charities and organizations to make contributing to the relief effort as easy as possible.
How you can help: Portlight Strategies | Red Cross

10-Day Weather Forecast

Almanac

Astronomy

May. 05, 2015 Rise Set
Actual Time
Civil Twilight
Nautical Twilight
Astronomical Twilight
Moon
Length of Visible Light
Length of Day
Tomorrow will be .
, % of the Moon is Illuminated

Today's Extremes

State Highs State Lows

Community

WunderPhotos

Upload Photos

1,818,875 photos uploaded!

WunderBlogs® & News

Nearby

Air Quality

  Air Quality AQ Index Pollutant
Not available.

Snow Depth

Station Depth Elevation

Earthquake Activity

City Distance Mag. Time & Date
Minimum magnitude displayed is 2.5.

Coastal Water Temperatures

Place Temperature

Stations

Nearby Weather Stations

Station Location Temp. Windchill Dew Point Humidity Wind Precip. Elev Updated Type